createdAt,value
2022-09-11T00:02:32.549Z,4.80
2022-09-11T00:06:49.840Z,4.55
2022-09-11T00:11:12.131Z,4.32
2022-09-11T00:15:29.308Z,4.35
2022-09-11T00:19:46.458Z,4.72
2022-09-11T00:24:04.379Z,4.57
2022-09-11T00:28:23.835Z,6.95
2022-09-11T00:32:41.186Z,6.78
2022-09-11T00:36:58.430Z,5.22
2022-09-11T00:41:21.821Z,6.10
2022-09-11T00:45:39.071Z,6.55
2022-09-11T00:49:59.659Z,6.75
2022-09-11T00:54:21.021Z,7.43
2022-09-11T00:58:42.677Z,6.57
2022-09-11T01:03:00.199Z,9.38
2022-09-11T01:07:18.860Z,7.35
2022-09-11T01:11:46.103Z,7.03
2022-09-11T01:16:31.241Z,8.00
2022-09-11T01:21:31.298Z,7.78
2022-09-11T01:26:05.877Z,8.15
2022-09-11T01:30:27.889Z,8.25
2022-09-11T01:35:12.785Z,7.93
2022-09-11T01:39:40.600Z,8.85
2022-09-11T01:44:03.885Z,10.77
2022-09-11T01:48:26.972Z,9.23
2022-09-11T01:53:06.590Z,10.05
2022-09-11T01:57:39.589Z,10.70
2022-09-11T02:02:04.597Z,10.38
2022-09-11T02:06:28.603Z,9.85
2022-09-11T02:10:52.108Z,10.40
2022-09-11T02:15:12.004Z,9.13
2022-09-11T02:19:30.628Z,9.20
2022-09-11T02:23:47.800Z,9.32
2022-09-11T02:28:05.003Z,9.70
2022-09-11T02:32:23.819Z,8.60
2022-09-11T02:37:11.374Z,11.93
2022-09-11T02:41:51.842Z,9.90
2022-09-11T02:46:39.054Z,8.20
2022-09-11T02:51:18.896Z,7.90
2022-09-11T02:56:03.369Z,9.48
2022-09-11T03:00:20.632Z,8.10
2022-09-11T03:04:38.230Z,8.43
2022-09-11T03:08:55.721Z,7.32
2022-09-11T03:13:14.815Z,7.13
2022-09-11T03:17:33.017Z,6.45
2022-09-11T03:21:51.490Z,5.70
2022-09-11T03:26:08.631Z,6.72
2022-09-11T03:30:25.774Z,6.50
2022-09-11T03:34:42.951Z,7.63
2022-09-11T03:39:01.243Z,6.32
2022-09-11T03:43:19.387Z,6.47
2022-09-11T03:47:37.272Z,6.60
2022-09-11T03:51:54.388Z,5.55
2022-09-11T03:56:12.447Z,6.13
2022-09-11T04:00:29.967Z,4.87
2022-09-11T04:04:47.094Z,5.35
2022-09-11T04:09:04.695Z,5.53
2022-09-11T04:13:29.891Z,5.45
2022-09-11T04:17:47.052Z,5.93
2022-09-11T04:22:04.323Z,5.82
2022-09-11T04:26:24.221Z,6.10
2022-09-11T04:30:42.195Z,5.45
2022-09-11T04:34:59.295Z,5.70
2022-09-11T04:39:16.518Z,5.72
2022-09-11T04:43:35.793Z,6.28
2022-09-11T04:47:53.273Z,6.78
2022-09-11T04:52:10.433Z,6.38
2022-09-11T04:56:29.715Z,5.90
2022-09-11T05:00:47.596Z,6.53
2022-09-11T05:05:05.219Z,7.25
2022-09-11T05:09:22.462Z,7.75
2022-09-11T05:13:41.104Z,8.30
2022-09-11T05:17:58.257Z,7.50
2022-09-11T05:22:15.844Z,8.27
2022-09-11T05:26:36.330Z,7.43
2022-09-11T05:30:54.767Z,7.80
2022-09-11T05:35:11.881Z,7.80
2022-09-11T05:39:29.406Z,8.70
2022-09-11T05:43:46.875Z,9.13
2022-09-11T05:48:04.111Z,8.95
2022-09-11T05:52:21.255Z,8.60
2022-09-11T05:56:38.499Z,8.45
2022-09-11T06:01:07.185Z,9.35
2022-09-11T06:05:24.483Z,9.88
2022-09-11T06:09:41.634Z,9.48
2022-09-11T06:13:58.879Z,9.75
2022-09-11T06:18:16.575Z,9.95
2022-09-11T06:22:36.380Z,11.50
2022-09-11T06:26:53.570Z,11.02
2022-09-11T06:31:13.492Z,10.57
2022-09-11T06:35:30.677Z,11.23
2022-09-11T06:39:47.892Z,12.10
2022-09-11T06:44:05.300Z,11.85
2022-09-11T06:48:22.411Z,13.13
2022-09-11T06:52:39.572Z,17.10
2022-09-11T06:56:56.795Z,27.75
2022-09-11T07:01:18.968Z,54.40
2022-09-11T07:05:36.218Z,46.25
2022-09-11T07:09:53.590Z,40.03
2022-09-11T07:14:10.884Z,43.35
2022-09-11T07:18:34.213Z,38.28
2022-09-11T07:22:51.516Z,37.20
2022-09-11T07:27:08.832Z,34.95
2022-09-11T07:31:33.277Z,38.03
2022-09-11T07:35:52.279Z,41.53
2022-09-11T07:40:10.377Z,35.00
2022-09-11T07:44:27.753Z,36.73
2022-09-11T07:48:44.956Z,41.10
2022-09-11T07:53:02.089Z,48.75
2022-09-11T07:57:19.391Z,58.97
2022-09-11T08:01:36.757Z,83.55
2022-09-11T08:06:00.915Z,82.13
2022-09-11T08:10:27.141Z,55.88
2022-09-11T08:14:45.088Z,42.92
2022-09-11T08:19:02.463Z,47.67
2022-09-11T08:23:19.759Z,59.25
2022-09-11T08:27:38.136Z,49.90
2022-09-11T08:31:59.129Z,47.00
2022-09-11T08:36:19.829Z,42.55
2022-09-11T08:40:38.928Z,40.37
2022-09-11T08:45:00.344Z,32.80
2022-09-11T08:49:35.937Z,36.85
2022-09-11T08:53:56.076Z,43.00
2022-09-11T08:58:23.712Z,45.85
2022-09-11T09:03:02.891Z,36.15
2022-09-11T09:07:37.151Z,32.88
2022-09-11T09:12:16.026Z,31.73
2022-09-11T09:16:56.944Z,28.47
2022-09-11T09:21:32.931Z,24.30
2022-09-11T09:25:53.111Z,27.13
2022-09-11T09:30:27.548Z,24.90
2022-09-11T09:34:46.018Z,24.35
2022-09-11T09:39:14.364Z,20.48
2022-09-11T09:43:45.938Z,22.30
2022-09-11T09:48:04.556Z,21.15
2022-09-11T09:52:24.512Z,24.63
2022-09-11T09:56:44.245Z,23.60
2022-09-11T10:01:01.560Z,25.75
2022-09-11T10:05:20.745Z,24.70
2022-09-11T10:09:50.222Z,28.30
2022-09-11T10:14:46.804Z,21.67
2022-09-11T10:18:57.652Z,21.60
2022-09-11T10:23:29.588Z,24.10
2022-09-11T10:28:08.891Z,21.95
2022-09-11T10:32:27.446Z,24.83
2022-09-11T10:37:03.233Z,20.45
2022-09-11T10:41:27.788Z,16.42
2022-09-11T10:46:01.981Z,15.93
2022-09-11T10:50:25.470Z,15.68
2022-09-11T10:55:07.146Z,15.68
2022-09-11T10:59:45.902Z,18.05
2022-09-11T11:04:03.412Z,27.30
2022-09-11T11:08:48.338Z,25.60
2022-09-11T11:13:46.885Z,25.95
2022-09-11T11:18:11.948Z,24.92
2022-09-11T11:22:41.834Z,22.98
2022-09-11T11:27:06.404Z,24.35
2022-09-11T11:31:45.039Z,25.30
2022-09-11T11:36:15.297Z,23.77
2022-09-11T11:40:39.561Z,27.00
2022-09-11T11:45:04.415Z,30.17
2022-09-11T11:49:33.237Z,33.00
2022-09-11T11:54:12.021Z,37.28
2022-09-11T11:58:43.948Z,38.35
2022-09-11T12:03:25.421Z,40.45
2022-09-11T12:07:42.746Z,36.88
2022-09-11T12:12:06.349Z,37.78
2022-09-11T12:16:32.153Z,33.95
2022-09-11T12:20:49.417Z,29.73
2022-09-11T12:25:29.947Z,28.45
2022-09-11T12:29:56.084Z,26.23
2022-09-11T12:34:18.234Z,25.75
2022-09-11T12:38:51.501Z,27.02
2022-09-11T12:43:34.917Z,27.17
2022-09-11T12:47:52.155Z,23.70
2022-09-11T12:52:23.672Z,22.50
2022-09-11T12:56:47.728Z,21.30
2022-09-11T13:01:11.107Z,19.33
2022-09-11T13:05:37.719Z,17.60
2022-09-11T13:09:56.465Z,14.57
2022-09-11T13:14:28.612Z,10.98
2022-09-11T13:18:45.997Z,9.45
2022-09-11T13:23:18.371Z,10.07
2022-09-11T13:27:37.565Z,10.70
2022-09-11T13:31:59.880Z,11.13
2022-09-11T13:36:22.980Z,11.30
2022-09-11T13:40:48.808Z,10.90
2022-09-11T13:45:07.511Z,10.10
2022-09-11T13:49:39.107Z,8.20
2022-09-11T13:54:04.272Z,7.78
2022-09-11T13:58:32.645Z,8.13
2022-09-11T14:02:52.906Z,7.50
2022-09-11T14:07:22.922Z,9.50
2022-09-11T14:11:40.169Z,9.10
2022-09-11T14:16:02.428Z,8.90
2022-09-11T14:20:20.203Z,8.10
2022-09-11T14:24:38.393Z,7.63
2022-09-11T14:29:00.369Z,5.83
2022-09-11T14:33:23.881Z,6.07
2022-09-11T14:37:45.781Z,5.95
2022-09-11T14:42:07.163Z,6.15
2022-09-11T14:46:24.883Z,5.93
2022-09-11T14:50:42.168Z,6.05
2022-09-11T14:55:00.042Z,5.53
2022-09-11T14:59:17.834Z,4.75
2022-09-11T15:03:34.998Z,4.60
2022-09-11T15:07:53.048Z,4.03
2022-09-11T15:12:12.441Z,4.23
2022-09-11T15:16:29.772Z,5.07
2022-09-11T15:20:46.963Z,4.93
2022-09-11T15:25:04.801Z,6.43
2022-09-11T15:29:22.841Z,6.90
2022-09-11T15:33:40.166Z,7.17
2022-09-11T15:37:57.707Z,7.47
2022-09-11T15:42:14.983Z,8.02
2022-09-11T15:46:32.142Z,8.52
2022-09-11T15:51:02.350Z,9.90
2022-09-11T15:55:19.546Z,10.10
2022-09-11T15:59:36.837Z,9.90
2022-09-11T16:03:56.310Z,9.90
2022-09-11T16:08:15.289Z,11.68
2022-09-11T16:12:34.469Z,11.35
2022-09-11T16:21:14.331Z,12.45
2022-09-11T16:25:31.518Z,12.10
2022-09-11T16:30:25.828Z,11.93
2022-09-11T16:34:25.918Z,13.25
2022-09-11T16:38:43.525Z,13.45
2022-09-11T16:43:01.032Z,14.20
2022-09-11T16:47:18.367Z,14.88
2022-09-11T16:51:35.528Z,14.55
2022-09-11T16:55:53.363Z,14.43
2022-09-11T17:00:11.714Z,14.02
2022-09-11T17:04:28.879Z,14.07
2022-09-11T17:08:46.313Z,18.73
2022-09-11T17:13:03.570Z,18.85
2022-09-11T17:17:23.023Z,16.60
2022-09-11T17:21:40.183Z,18.52
2022-09-11T17:25:57.774Z,17.17
2022-09-11T17:30:18.203Z,22.00
2022-09-11T17:34:35.616Z,22.25
2022-09-11T17:38:52.898Z,23.35
2022-09-11T17:43:12.858Z,21.60
2022-09-11T17:47:32.858Z,23.58
2022-09-11T17:51:50.137Z,24.45
2022-09-11T17:56:13.131Z,22.58
2022-09-11T18:00:30.308Z,23.80
2022-09-11T18:04:48.383Z,23.10
2022-09-11T18:09:16.175Z,25.60
2022-09-11T18:13:34.979Z,23.77
2022-09-11T18:22:10.784Z,25.13
2022-09-11T18:26:31.026Z,26.77
2022-09-11T18:30:49.877Z,27.90
2022-09-11T18:39:24.449Z,24.63
2022-09-11T18:43:41.702Z,24.33
2022-09-11T18:48:00.075Z,26.13
2022-09-11T18:52:20.609Z,28.38
2022-09-11T18:56:40.370Z,28.90
2022-09-11T19:01:00.486Z,27.92
2022-09-11T19:05:18.768Z,28.60
2022-09-11T19:09:35.915Z,27.10
2022-09-11T19:13:54.688Z,31.05
2022-09-11T19:18:11.799Z,34.40
2022-09-11T19:22:29.269Z,32.00
2022-09-11T19:26:46.508Z,30.90
2022-09-11T19:31:05.208Z,30.88
2022-09-11T19:35:22.370Z,34.25
2022-09-11T19:39:40.005Z,29.50
2022-09-11T19:44:05.211Z,31.08
2022-09-11T19:48:22.329Z,29.40
2022-09-11T19:52:39.485Z,31.17
2022-09-11T19:56:56.621Z,31.15
2022-09-11T20:01:15.826Z,37.00
2022-09-11T20:05:32.952Z,37.53
2022-09-11T20:09:50.149Z,31.13
2022-09-11T20:14:07.310Z,32.78
2022-09-11T20:18:24.512Z,30.98
2022-09-11T20:22:41.774Z,35.88
2022-09-11T20:27:00.484Z,33.45
2022-09-11T20:31:19.903Z,34.30
2022-09-11T20:35:37.115Z,32.55
2022-09-11T20:39:54.256Z,33.42
2022-09-11T20:44:11.639Z,34.92
2022-09-11T20:48:29.209Z,34.33
2022-09-11T20:52:46.685Z,35.00
2022-09-11T20:57:04.323Z,37.47
2022-09-11T21:01:23.595Z,32.88
2022-09-11T21:05:40.835Z,32.75
2022-09-11T21:09:59.061Z,33.78
2022-09-11T21:14:17.202Z,35.73
2022-09-11T21:18:34.813Z,33.83
2022-09-11T21:22:52.088Z,34.78
2022-09-11T21:27:09.671Z,35.85
2022-09-11T21:31:26.968Z,39.45
2022-09-11T21:35:44.352Z,36.88
2022-09-11T21:40:02.154Z,42.05
2022-09-11T21:44:19.415Z,42.45
2022-09-11T21:48:38.849Z,38.88
2022-09-11T21:52:55.960Z,38.00
2022-09-11T21:57:13.134Z,40.25
2022-09-11T22:01:31.811Z,40.00
2022-09-11T22:05:51.114Z,37.10
2022-09-11T22:10:08.803Z,40.97
2022-09-11T22:14:26.002Z,45.25
2022-09-11T22:18:43.690Z,42.15
2022-09-11T22:23:00.822Z,36.92
2022-09-11T22:27:18.123Z,36.17
2022-09-11T22:31:35.313Z,41.00
2022-09-11T22:35:52.541Z,36.63
2022-09-11T22:40:10.196Z,36.47
2022-09-11T22:44:27.430Z,36.85
2022-09-11T22:48:44.523Z,42.78
2022-09-11T22:53:02.343Z,40.10
2022-09-11T22:57:19.572Z,43.58
2022-09-11T23:01:37.156Z,39.67
2022-09-11T23:06:20.559Z,34.40
2022-09-11T23:10:45.785Z,38.00
2022-09-11T23:15:04.396Z,40.17
2022-09-11T23:19:22.407Z,35.50
2022-09-11T23:23:44.797Z,39.00
2022-09-11T23:28:02.082Z,33.28
2022-09-11T23:32:19.283Z,37.42
2022-09-11T23:36:36.508Z,34.72
2022-09-11T23:40:53.785Z,34.80
2022-09-11T23:45:12.753Z,31.38
2022-09-11T23:53:53.004Z,30.52
2022-09-11T23:58:10.137Z,32.85
